createdAt,value
2022-10-01T00:02:13.666Z,20.50
2022-10-01T00:04:42.009Z,20.50
2022-10-01T00:07:15.272Z,20.50
2022-10-01T00:09:43.824Z,20.40
2022-10-01T00:12:15.916Z,20.40
2022-10-01T00:14:45.205Z,20.40
2022-10-01T00:17:13.592Z,20.40
2022-10-01T00:19:42.161Z,20.40
2022-10-01T00:22:11.931Z,20.40
2022-10-01T00:24:40.804Z,20.40
2022-10-01T00:27:11.137Z,20.40
2022-10-01T00:29:39.528Z,20.40
2022-10-01T00:32:08.433Z,20.40
2022-10-01T00:34:36.865Z,20.40
2022-10-01T00:37:05.495Z,20.40
2022-10-01T00:39:35.321Z,20.40
2022-10-01T00:42:03.744Z,20.50
2022-10-01T00:44:33.668Z,20.60
2022-10-01T00:47:04.533Z,20.80
2022-10-01T00:49:34.745Z,20.90
2022-10-01T00:52:03.977Z,20.90
2022-10-01T00:54:35.740Z,21.00
2022-10-01T00:57:06.722Z,21.00
2022-10-01T00:59:36.650Z,21.00
2022-10-01T01:02:05.168Z,21.00
2022-10-01T01:04:33.856Z,20.90
2022-10-01T01:07:03.367Z,20.80
2022-10-01T01:09:34.668Z,20.60
2022-10-01T01:12:08.525Z,20.40
2022-10-01T01:14:43.136Z,20.30
2022-10-01T01:17:13.989Z,20.30
2022-10-01T01:19:51.321Z,20.30
2022-10-01T01:22:21.661Z,20.30
2022-10-01T01:24:52.116Z,20.50
2022-10-01T01:27:26.911Z,20.60
2022-10-01T01:30:01.361Z,20.70
2022-10-01T01:32:31.842Z,20.80
2022-10-01T01:35:02.352Z,20.80
2022-10-01T01:37:34.754Z,20.90
2022-10-01T01:40:05.209Z,20.90
2022-10-01T01:42:37.321Z,20.80
2022-10-01T01:45:09.942Z,20.80
2022-10-01T01:47:39.903Z,20.70
2022-10-01T01:50:08.795Z,20.70
2022-10-01T01:52:38.389Z,20.70
2022-10-01T01:55:08.553Z,20.70
2022-10-01T01:57:38.897Z,20.70
2022-10-01T02:00:09.540Z,20.70
2022-10-01T02:02:39.530Z,20.60
2022-10-01T02:05:09.295Z,20.60
2022-10-01T02:07:45.686Z,20.60
2022-10-01T02:10:19.634Z,20.70
2022-10-01T02:12:52.174Z,20.70
2022-10-01T02:15:26.393Z,20.70
2022-10-01T02:17:59.370Z,20.80
2022-10-01T02:20:29.873Z,20.80
2022-10-01T02:23:00.355Z,20.90
2022-10-01T02:25:31.091Z,20.90
2022-10-01T02:28:01.857Z,20.90
2022-10-01T02:30:32.414Z,20.80
2022-10-01T02:33:02.250Z,20.70
2022-10-01T02:35:32.074Z,20.70
2022-10-01T02:38:01.620Z,20.70
2022-10-01T02:40:32.765Z,20.60
2022-10-01T02:43:02.779Z,20.60
2022-10-01T02:45:35.600Z,20.50
2022-10-01T02:48:06.094Z,20.50
2022-10-01T02:50:38.235Z,20.50
2022-10-01T02:53:07.556Z,20.40
2022-10-01T02:55:37.822Z,20.40
2022-10-01T02:58:05.263Z,20.40
2022-10-01T03:00:35.118Z,20.40
2022-10-01T03:03:03.520Z,20.30
2022-10-01T03:05:32.096Z,20.30
2022-10-01T03:08:00.565Z,20.40
2022-10-01T03:10:29.010Z,20.40
2022-10-01T03:12:57.585Z,20.40
2022-10-01T03:15:26.012Z,20.40
2022-10-01T03:17:56.233Z,20.40
2022-10-01T03:20:24.823Z,20.50
2022-10-01T03:22:53.254Z,20.50
2022-10-01T03:25:21.604Z,20.40
2022-10-01T03:27:50.389Z,20.40
2022-10-01T03:30:18.946Z,20.30
2022-10-01T03:32:47.286Z,20.30
2022-10-01T03:35:17.239Z,20.20
2022-10-01T03:37:47.742Z,20.10
2022-10-01T03:40:16.124Z,20.10
2022-10-01T03:42:44.585Z,20.00
2022-10-01T03:45:13.049Z,20.00
2022-10-01T03:47:41.472Z,20.00
2022-10-01T03:50:10.644Z,20.00
2022-10-01T03:52:42.196Z,20.00
2022-10-01T03:55:10.835Z,20.00
2022-10-01T03:57:39.505Z,20.00
2022-10-01T04:00:08.448Z,19.90
2022-10-01T04:02:36.955Z,19.90
2022-10-01T04:05:05.777Z,19.90
2022-10-01T04:07:34.105Z,19.90
2022-10-01T04:10:03.972Z,19.90
2022-10-01T04:12:32.388Z,19.90
2022-10-01T04:15:00.810Z,19.90
2022-10-01T04:17:29.453Z,20.00
2022-10-01T04:20:00.301Z,20.00
2022-10-01T04:22:28.799Z,20.00
2022-10-01T04:24:57.208Z,20.00
2022-10-01T04:27:27.097Z,20.10
2022-10-01T04:29:55.591Z,20.10
2022-10-01T04:32:23.985Z,20.10
2022-10-01T04:34:55.038Z,20.10
2022-10-01T04:37:23.702Z,20.10
2022-10-01T04:39:52.132Z,20.10
2022-10-01T04:42:20.567Z,20.10
2022-10-01T04:44:50.935Z,20.10
2022-10-01T04:47:19.298Z,20.10
2022-10-01T04:49:47.710Z,20.10
2022-10-01T04:52:16.430Z,20.10
2022-10-01T04:54:44.796Z,20.00
2022-10-01T04:57:13.599Z,20.00
2022-10-01T04:59:41.982Z,19.90
2022-10-01T05:02:11.811Z,19.90
2022-10-01T05:04:40.452Z,19.80
2022-10-01T05:07:09.107Z,19.80
2022-10-01T05:09:37.532Z,19.90
2022-10-01T05:12:08.135Z,19.80
2022-10-01T05:14:36.662Z,19.80
2022-10-01T05:17:05.630Z,19.80
2022-10-01T05:19:35.361Z,19.80
2022-10-01T05:22:04.453Z,19.80
2022-10-01T05:24:32.905Z,19.80
2022-10-01T05:27:01.264Z,19.80
2022-10-01T05:29:29.701Z,19.80
2022-10-01T05:31:59.081Z,19.80
2022-10-01T05:34:27.489Z,19.80
2022-10-01T05:36:57.517Z,19.90
2022-10-01T05:39:26.000Z,20.00
2022-10-01T05:41:55.531Z,20.00
2022-10-01T05:44:24.229Z,20.00
2022-10-01T05:46:53.713Z,19.90
2022-10-01T05:49:24.505Z,19.90
2022-10-01T05:51:53.227Z,19.90
2022-10-01T05:54:23.279Z,19.90
2022-10-01T05:56:51.705Z,20.00
2022-10-01T05:59:20.066Z,20.00
2022-10-01T06:01:48.542Z,20.00
2022-10-01T06:04:16.987Z,20.00
2022-10-01T06:06:45.376Z,20.00
2022-10-01T06:09:14.106Z,19.90
2022-10-01T06:11:43.879Z,19.90
2022-10-01T06:14:12.540Z,19.90
2022-10-01T06:16:41.064Z,19.90
2022-10-01T06:19:09.424Z,19.90
2022-10-01T06:21:38.047Z,19.90
2022-10-01T06:24:06.801Z,19.90
2022-10-01T06:26:35.233Z,19.90
2022-10-01T06:29:05.031Z,19.90
2022-10-01T06:31:34.619Z,19.90
2022-10-01T06:34:03.193Z,19.90
2022-10-01T06:36:31.634Z,19.90
2022-10-01T06:39:00.054Z,20.00
2022-10-01T06:41:28.489Z,20.10
2022-10-01T06:43:56.936Z,20.10
2022-10-01T06:46:26.771Z,20.10
2022-10-01T06:48:55.196Z,20.20
2022-10-01T06:51:43.986Z,20.30
2022-10-01T06:54:12.540Z,20.20
2022-10-01T06:56:40.916Z,20.20
2022-10-01T06:59:09.380Z,20.20
2022-10-01T07:01:39.468Z,20.20
2022-10-01T07:04:07.907Z,20.20
2022-10-01T07:06:36.255Z,20.20
2022-10-01T07:09:04.696Z,20.20
2022-10-01T07:11:33.313Z,20.20
2022-10-01T07:14:01.846Z,20.20
2022-10-01T07:16:30.369Z,20.30
2022-10-01T07:19:00.165Z,20.30
2022-10-01T07:21:28.552Z,20.30
2022-10-01T07:23:56.990Z,20.50
2022-10-01T07:26:25.365Z,20.50
2022-10-01T07:28:55.229Z,20.50
2022-10-01T07:31:24.553Z,20.50
2022-10-01T07:33:58.082Z,20.60
2022-10-01T07:36:27.908Z,20.80
2022-10-01T07:38:56.322Z,21.00
2022-10-01T07:41:25.017Z,21.10
2022-10-01T07:43:53.385Z,21.00
2022-10-01T07:46:21.853Z,21.00
2022-10-01T07:48:50.445Z,21.00
2022-10-01T07:51:18.801Z,21.00
2022-10-01T07:53:48.556Z,21.10
2022-10-01T07:56:17.049Z,21.20
2022-10-01T07:58:45.611Z,21.20
2022-10-01T08:01:14.024Z,21.50
2022-10-01T08:03:42.470Z,21.70
2022-10-01T08:06:12.516Z,21.70
2022-10-01T08:08:40.907Z,21.70
2022-10-01T08:11:10.705Z,21.70
2022-10-01T08:13:39.125Z,21.90
2022-10-01T08:16:09.624Z,22.10
2022-10-01T08:18:38.271Z,22.30
2022-10-01T08:21:07.175Z,22.30
2022-10-01T08:23:35.574Z,22.20
2022-10-01T08:26:05.563Z,22.20
2022-10-01T08:28:35.137Z,22.30
2022-10-01T08:31:09.144Z,22.30
2022-10-01T08:33:38.370Z,22.50
2022-10-01T08:36:08.544Z,22.60
2022-10-01T08:38:37.071Z,22.70
2022-10-01T08:41:13.490Z,22.80
2022-10-01T08:43:42.345Z,22.90
2022-10-01T08:46:14.990Z,22.60
2022-10-01T08:48:54.806Z,22.30
2022-10-01T08:51:28.329Z,22.10
2022-10-01T08:53:59.021Z,22.00
2022-10-01T08:56:30.578Z,22.00
2022-10-01T08:58:59.831Z,22.00
2022-10-01T09:01:31.014Z,22.10
2022-10-01T09:04:00.125Z,22.20
2022-10-01T09:06:29.062Z,22.20
2022-10-01T09:09:04.198Z,22.20
2022-10-01T09:11:42.561Z,22.30
2022-10-01T09:14:18.470Z,22.40
2022-10-01T09:16:52.567Z,22.30
2022-10-01T09:19:31.721Z,22.40
2022-10-01T09:22:03.327Z,22.50
2022-10-01T09:24:38.487Z,22.60
2022-10-01T09:27:11.448Z,22.60
2022-10-01T09:29:42.084Z,22.60
2022-10-01T09:32:15.746Z,22.40
2022-10-01T09:34:45.212Z,22.50
2022-10-01T09:37:20.071Z,22.30
2022-10-01T09:39:52.186Z,22.30
2022-10-01T09:42:21.067Z,22.40
2022-10-01T09:44:49.702Z,22.40
2022-10-01T09:47:21.485Z,22.40
2022-10-01T09:49:50.084Z,22.40
2022-10-01T09:52:24.811Z,22.30
2022-10-01T09:54:58.744Z,22.30
2022-10-01T09:57:31.903Z,22.50
2022-10-01T10:00:09.822Z,22.60
2022-10-01T10:02:48.372Z,22.70
2022-10-01T10:05:19.122Z,22.50
2022-10-01T10:07:52.565Z,22.50
2022-10-01T10:10:26.104Z,22.40
2022-10-01T10:13:02.293Z,22.40
2022-10-01T10:15:32.579Z,22.50
2022-10-01T10:18:10.295Z,22.60
2022-10-01T10:20:41.307Z,22.70
2022-10-01T10:23:15.273Z,22.70
2022-10-01T10:25:44.606Z,22.70
2022-10-01T10:28:23.587Z,22.60
2022-10-01T10:30:55.651Z,22.70
2022-10-01T10:33:27.509Z,22.70
2022-10-01T10:36:02.104Z,22.60
2022-10-01T10:38:35.000Z,22.60
2022-10-01T10:41:06.305Z,22.60
2022-10-01T10:43:38.267Z,22.70
2022-10-01T10:46:08.456Z,22.60
2022-10-01T10:48:43.503Z,22.70
2022-10-01T10:51:12.270Z,22.90
2022-10-01T10:53:45.044Z,22.90
2022-10-01T10:56:22.759Z,23.00
2022-10-01T10:58:53.851Z,22.90
2022-10-01T11:01:28.299Z,23.10
2022-10-01T11:04:00.424Z,23.30
2022-10-01T11:06:30.413Z,22.90
2022-10-01T11:09:01.968Z,22.70
2022-10-01T11:11:46.413Z,22.70
2022-10-01T11:14:31.926Z,22.60
2022-10-01T11:17:27.246Z,22.50
2022-10-01T11:20:16.327Z,22.50
2022-10-01T11:22:57.635Z,22.40
2022-10-01T11:25:37.898Z,22.60
2022-10-01T11:28:20.441Z,22.80
2022-10-01T11:30:59.464Z,22.80
2022-10-01T11:33:38.594Z,23.00
2022-10-01T11:36:16.680Z,22.80
2022-10-01T11:38:51.366Z,22.70
2022-10-01T11:41:26.963Z,22.70
2022-10-01T11:44:00.438Z,22.70
2022-10-01T11:46:39.561Z,22.80
2022-10-01T11:49:38.283Z,23.00
2022-10-01T11:52:17.377Z,23.10
2022-10-01T11:54:57.160Z,23.10
2022-10-01T11:57:45.241Z,23.20
2022-10-01T12:00:16.050Z,23.10
2022-10-01T12:02:53.707Z,23.00
2022-10-01T12:05:24.371Z,23.20
2022-10-01T12:08:02.557Z,23.00
2022-10-01T12:10:39.655Z,22.90
2022-10-01T12:13:16.802Z,22.80
2022-10-01T12:15:50.817Z,22.90
2022-10-01T12:18:26.445Z,22.90
2022-10-01T12:20:58.157Z,22.70
2022-10-01T12:23:32.344Z,22.60
2022-10-01T12:26:08.685Z,22.50
2022-10-01T12:28:52.021Z,22.30
2022-10-01T12:31:30.306Z,22.30
2022-10-01T12:34:12.516Z,22.40
2022-10-01T12:36:52.918Z,22.40
2022-10-01T12:39:37.566Z,22.50
2022-10-01T12:42:22.303Z,22.50
2022-10-01T12:44:58.937Z,22.40
2022-10-01T12:47:38.347Z,22.50
2022-10-01T12:50:21.373Z,22.30
2022-10-01T12:52:58.447Z,22.30
2022-10-01T12:55:46.294Z,22.40
2022-10-01T12:58:23.947Z,22.50
2022-10-01T13:01:00.046Z,22.40
2022-10-01T13:03:46.788Z,22.50
2022-10-01T13:06:25.593Z,22.50
2022-10-01T13:09:04.048Z,22.50
2022-10-01T13:11:51.515Z,22.50
2022-10-01T13:14:21.224Z,22.60
2022-10-01T13:16:58.323Z,22.60
2022-10-01T13:19:32.275Z,22.40
2022-10-01T13:22:10.224Z,22.50
2022-10-01T13:24:43.781Z,22.30
2022-10-01T13:27:18.898Z,22.10
2022-10-01T13:29:50.767Z,22.10
2022-10-01T13:32:27.217Z,22.10
2022-10-01T13:34:55.901Z,22.20
2022-10-01T13:37:42.343Z,22.20
2022-10-01T13:40:22.932Z,22.30
2022-10-01T13:42:53.406Z,22.40
2022-10-01T13:45:23.798Z,22.50
2022-10-01T13:47:52.169Z,22.50
2022-10-01T13:50:22.618Z,22.60
2022-10-01T13:52:51.153Z,22.50
2022-10-01T13:55:26.881Z,22.30
2022-10-01T13:58:04.770Z,22.40
2022-10-01T14:00:33.165Z,22.30
2022-10-01T14:03:04.038Z,22.30
2022-10-01T14:05:35.842Z,22.20
2022-10-01T14:08:11.888Z,22.10
2022-10-01T14:11:02.626Z,21.90
2022-10-01T14:13:50.637Z,21.90
2022-10-01T14:16:19.824Z,21.90
2022-10-01T14:18:50.937Z,21.70
2022-10-01T14:21:42.252Z,21.70
2022-10-01T14:24:15.280Z,21.60
2022-10-01T14:26:48.751Z,21.50
2022-10-01T14:32:17.679Z,21.40
2022-10-01T14:34:56.743Z,21.10
2022-10-01T14:37:25.177Z,21.10
2022-10-01T14:40:03.256Z,20.90
2022-10-01T14:42:31.724Z,20.90
2022-10-01T14:45:01.536Z,21.00
2022-10-01T14:47:35.669Z,21.20
2022-10-01T14:50:10.578Z,21.30
2022-10-01T14:52:41.578Z,21.50
2022-10-01T14:55:14.102Z,21.40
2022-10-01T14:57:43.828Z,21.40
2022-10-01T15:00:16.829Z,21.40
2022-10-01T15:02:45.955Z,21.30
2022-10-01T15:05:21.193Z,21.30
2022-10-01T15:07:49.624Z,21.20
2022-10-01T15:10:18.569Z,21.20
2022-10-01T15:12:48.126Z,21.10
2022-10-01T15:15:19.281Z,21.20
2022-10-01T15:17:47.966Z,21.20
2022-10-01T15:20:17.108Z,21.20
2022-10-01T15:22:47.529Z,21.30
2022-10-01T15:25:20.642Z,21.30
2022-10-01T15:27:49.867Z,21.50
2022-10-01T15:30:19.697Z,21.50
2022-10-01T15:32:49.544Z,21.50
2022-10-01T15:35:20.724Z,21.40
2022-10-01T15:37:50.514Z,21.50
2022-10-01T15:40:23.272Z,21.40
2022-10-01T15:43:12.991Z,21.50
2022-10-01T15:45:42.910Z,21.30
2022-10-01T15:48:30.399Z,21.20
2022-10-01T15:51:02.549Z,21.10
2022-10-01T15:53:31.970Z,21.10
2022-10-01T15:56:08.065Z,21.00
2022-10-01T15:58:39.093Z,20.80
2022-10-01T16:01:10.931Z,20.70
2022-10-01T16:03:40.830Z,20.70
2022-10-01T16:06:18.556Z,20.70
2022-10-01T16:08:54.636Z,20.70
2022-10-01T16:11:27.730Z,20.70
2022-10-01T16:14:21.021Z,20.70
2022-10-01T16:16:51.508Z,20.60
2022-10-01T16:19:21.982Z,20.60
2022-10-01T16:22:05.174Z,20.60
2022-10-01T16:24:42.181Z,20.60
2022-10-01T16:27:13.752Z,20.60
2022-10-01T16:29:42.186Z,20.60
2022-10-01T16:32:14.750Z,20.50
2022-10-01T16:34:43.169Z,20.60
2022-10-01T16:37:11.798Z,20.60
2022-10-01T16:39:40.220Z,20.70
2022-10-01T16:42:23.249Z,20.70
2022-10-01T16:44:52.912Z,20.70
2022-10-01T16:47:22.719Z,20.70
2022-10-01T16:49:52.713Z,20.70
2022-10-01T16:52:21.390Z,20.80
2022-10-01T16:54:50.124Z,20.80
2022-10-01T16:57:18.963Z,20.80
2022-10-01T16:59:47.354Z,20.80
2022-10-01T17:02:15.783Z,20.70
2022-10-01T17:04:45.612Z,20.70
2022-10-01T17:07:13.950Z,20.70
2022-10-01T17:09:42.288Z,20.70
2022-10-01T17:12:10.720Z,20.70
2022-10-01T17:14:39.168Z,20.70
2022-10-01T17:17:07.562Z,20.80
2022-10-01T17:19:35.994Z,20.80
2022-10-01T17:22:05.784Z,20.80
2022-10-01T17:24:34.118Z,20.80
2022-10-01T17:27:02.553Z,20.80
2022-10-01T17:29:32.276Z,20.80
2022-10-01T17:32:00.665Z,20.80
2022-10-01T17:34:29.078Z,20.80
2022-10-01T17:36:59.838Z,20.70
2022-10-01T17:39:29.706Z,20.70
2022-10-01T17:41:58.124Z,20.70
2022-10-01T17:44:26.840Z,20.80
2022-10-01T17:46:55.272Z,20.80
2022-10-01T17:49:23.643Z,20.70
2022-10-01T17:51:53.525Z,20.70
2022-10-01T17:54:22.260Z,20.70
2022-10-01T17:56:54.345Z,20.70
2022-10-01T17:59:22.971Z,20.70
2022-10-01T18:01:54.387Z,20.70
2022-10-01T18:04:22.989Z,20.70
2022-10-01T18:06:52.601Z,20.60
2022-10-01T18:09:21.473Z,20.60
2022-10-01T18:11:50.018Z,20.60
2022-10-01T18:14:19.825Z,20.60
2022-10-01T18:16:48.441Z,20.60
2022-10-01T18:19:52.765Z,20.60
2022-10-01T18:22:13.669Z,20.60
2022-10-01T18:24:42.586Z,20.60
2022-10-01T18:27:10.966Z,20.60
2022-10-01T18:29:40.921Z,20.60
2022-10-01T18:32:13.693Z,20.60
2022-10-01T18:34:44.697Z,20.60
2022-10-01T18:37:22.119Z,20.60
2022-10-01T18:39:54.489Z,20.60
2022-10-01T18:42:27.412Z,20.60
2022-10-01T18:44:58.778Z,20.60
2022-10-01T18:47:32.357Z,20.60
2022-10-01T18:50:18.689Z,20.60
2022-10-01T18:52:51.454Z,20.60
2022-10-01T18:55:34.740Z,20.50
2022-10-01T18:58:10.372Z,20.50
2022-10-01T19:00:43.668Z,20.50
2022-10-01T19:03:24.336Z,20.40
2022-10-01T19:05:59.214Z,20.30
2022-10-01T19:08:34.277Z,20.30
2022-10-01T19:11:05.625Z,20.20
2022-10-01T19:13:38.168Z,20.20
2022-10-01T19:16:13.053Z,20.10
2022-10-01T19:18:46.944Z,20.10
2022-10-01T19:21:19.743Z,20.00
2022-10-01T19:23:55.931Z,20.00
2022-10-01T19:26:26.951Z,20.00
2022-10-01T19:29:04.284Z,19.90
2022-10-01T19:31:38.155Z,19.90
2022-10-01T19:34:10.730Z,19.90
2022-10-01T19:36:41.573Z,19.90
2022-10-01T19:39:11.974Z,19.80
2022-10-01T19:41:43.329Z,19.80
2022-10-01T19:44:13.876Z,19.80
2022-10-01T19:46:45.507Z,19.80
2022-10-01T19:49:17.096Z,19.70
2022-10-01T19:51:47.501Z,19.70
2022-10-01T19:54:17.336Z,19.70
2022-10-01T19:56:46.763Z,19.70
2022-10-01T19:59:16.099Z,19.70
2022-10-01T20:01:48.921Z,19.70
2022-10-01T20:04:21.367Z,19.70
2022-10-01T20:06:49.725Z,19.60
2022-10-01T20:09:22.507Z,19.60
2022-10-01T20:11:54.001Z,19.60
2022-10-01T20:14:50.869Z,19.50
2022-10-01T20:17:23.539Z,19.40
2022-10-01T20:19:56.200Z,19.30
2022-10-01T20:22:28.035Z,19.20
2022-10-01T20:24:59.451Z,19.20
2022-10-01T20:27:35.290Z,19.20
2022-10-01T20:30:06.339Z,19.10
2022-10-01T20:32:38.805Z,19.10
2022-10-01T20:35:12.183Z,19.00
2022-10-01T20:37:49.119Z,19.00
2022-10-01T20:40:25.107Z,19.00
2022-10-01T20:42:55.759Z,19.00
2022-10-01T20:45:26.463Z,19.00
2022-10-01T20:48:00.221Z,19.00
2022-10-01T20:50:32.412Z,19.00
2022-10-01T20:53:14.007Z,19.00
2022-10-01T20:55:44.949Z,19.00
2022-10-01T20:58:16.655Z,19.00
2022-10-01T21:00:46.018Z,19.00
2022-10-01T21:03:22.986Z,18.90
2022-10-01T21:05:52.860Z,18.90
2022-10-01T21:08:34.481Z,18.80
2022-10-01T21:11:05.044Z,18.90
2022-10-01T21:13:36.812Z,18.80
2022-10-01T21:16:09.449Z,18.80
2022-10-01T21:18:46.029Z,18.70
2022-10-01T21:21:19.575Z,18.70
2022-10-01T21:23:56.868Z,18.80
2022-10-01T21:26:29.274Z,18.70
2022-10-01T21:29:03.725Z,18.70
2022-10-01T21:31:39.295Z,18.80
2022-10-01T21:34:12.865Z,18.80
2022-10-01T21:36:49.284Z,18.80
2022-10-01T21:39:20.604Z,18.90
2022-10-01T21:41:55.526Z,18.80
2022-10-01T21:44:36.781Z,18.80
2022-10-01T21:47:08.887Z,18.80
2022-10-01T21:49:42.010Z,18.80
2022-10-01T21:52:15.053Z,18.80
2022-10-01T21:54:53.679Z,18.70
2022-10-01T21:57:28.972Z,18.70
2022-10-01T22:00:11.045Z,18.70
2022-10-01T22:02:44.630Z,18.70
2022-10-01T22:05:22.808Z,18.80
2022-10-01T22:07:55.515Z,18.70
2022-10-01T22:10:28.000Z,18.70
2022-10-01T22:13:00.546Z,18.70
2022-10-01T22:15:30.845Z,18.70
2022-10-01T22:18:01.040Z,18.70
2022-10-01T22:20:34.365Z,18.70
2022-10-01T22:23:08.235Z,18.60
2022-10-01T22:25:38.095Z,18.60
2022-10-01T22:28:08.801Z,18.60
2022-10-01T22:30:39.918Z,18.50
2022-10-01T22:33:11.349Z,18.60
2022-10-01T22:35:44.286Z,18.50
2022-10-01T22:38:16.286Z,18.50
2022-10-01T22:40:47.261Z,18.50
2022-10-01T22:43:15.753Z,18.40
2022-10-01T22:45:49.927Z,18.40
2022-10-01T22:48:25.372Z,18.40
2022-10-01T22:51:08.915Z,18.40
2022-10-01T22:53:50.527Z,18.30
2022-10-01T22:56:22.048Z,18.30
2022-10-01T22:58:57.736Z,18.30
2022-10-01T23:01:30.074Z,18.30
2022-10-01T23:04:05.986Z,18.30
2022-10-01T23:06:38.215Z,18.30
2022-10-01T23:09:10.442Z,18.20
2022-10-01T23:11:44.393Z,18.20
2022-10-01T23:14:16.777Z,18.30
2022-10-01T23:16:51.217Z,18.30
2022-10-01T23:19:29.929Z,18.30
2022-10-01T23:22:02.817Z,18.30
2022-10-01T23:24:36.631Z,18.30
2022-10-01T23:27:09.325Z,18.30
2022-10-01T23:29:53.817Z,18.30
2022-10-01T23:32:29.809Z,18.20
2022-10-01T23:35:01.380Z,18.20
2022-10-01T23:37:45.064Z,18.30
2022-10-01T23:40:14.455Z,18.30
2022-10-01T23:42:47.005Z,18.30
2022-10-01T23:45:21.488Z,18.30
2022-10-01T23:47:52.986Z,18.30
2022-10-01T23:50:22.905Z,18.30
2022-10-01T23:52:57.244Z,18.30
2022-10-01T23:55:54.340Z,18.30
2022-10-01T23:58:23.447Z,18.30
